Terminal Aerodrome Forecast
Issued by NWS

Home | Current Version | Previous Version | Text Only | Print | Product List | Glossary On
Versions: 1 2 3 4 5 6 7 8 9 10 11 12 13 14 15 16 17 18 19 20 21 22 23 24 25 26 27 28 29 30 31 32 33 34 35 36 37
000
FTUS42 KRAH 222124 AAB
TAFINT
TAF AMD
KINT 222124Z 2221/2318 03009KT 3SM -DZ BR OVC006
      TEMPO 2221/2224 1 1/2SM BR OVC004
     FM230000 04007KT 3SM -DZ BR OVC004
      TEMPO 2300/2302 6SM -RA BR OVC007
     FM230200 03007KT 2SM BR OVC003
      TEMPO 2304/2308 3SM -RA=

USA.gov is the U.S. government's official web portal to all federal, state and local government web resources and services.